createdAt,value
2022-09-28T00:02:12.135Z,1.83
2022-09-28T00:07:15.477Z,1.73
2022-09-28T00:12:21.754Z,1.75
2022-09-28T00:17:26.475Z,1.95
2022-09-28T00:22:29.611Z,2.03
2022-09-28T00:27:34.388Z,1.60
2022-09-28T00:32:37.604Z,1.83
2022-09-28T00:37:40.925Z,1.80
2022-09-28T00:42:46.387Z,2.47
2022-09-28T00:47:54.950Z,2.00
2022-09-28T00:53:02.291Z,1.88
2022-09-28T00:58:11.767Z,2.50
2022-09-28T01:03:16.437Z,2.70
2022-09-28T01:08:21.662Z,3.30
2022-09-28T01:18:37.827Z,2.67
2022-09-28T01:24:05.216Z,2.55
2022-09-28T01:29:17.633Z,3.38
2022-09-28T01:34:26.713Z,3.15
2022-09-28T01:39:33.254Z,2.80
2022-09-28T01:44:43.415Z,3.25
2022-09-28T01:49:51.867Z,3.05
2022-09-28T01:54:59.644Z,3.38
2022-09-28T02:00:08.428Z,3.00
2022-09-28T02:05:29.622Z,2.92
2022-09-28T02:10:38.614Z,2.70
2022-09-28T02:15:51.066Z,2.80
2022-09-28T02:21:06.491Z,3.40
2022-09-28T02:26:14.302Z,2.88
2022-09-28T02:31:19.336Z,3.22
2022-09-28T02:36:23.157Z,3.15
2022-09-28T02:41:35.124Z,2.80
2022-09-28T02:46:47.877Z,2.80
2022-09-28T02:52:15.399Z,2.58
2022-09-28T02:57:30.554Z,3.10
2022-09-28T03:07:52.333Z,2.50
2022-09-28T03:12:56.527Z,2.75
2022-09-28T03:18:01.552Z,3.40
2022-09-28T03:23:23.746Z,3.08
2022-09-28T03:28:28.176Z,3.25
2022-09-28T03:33:33.188Z,3.78
2022-09-28T03:38:36.593Z,3.33
2022-09-28T03:43:40.208Z,4.53
2022-09-28T03:48:44.778Z,4.07
2022-09-28T03:53:48.055Z,3.47
2022-09-28T03:58:51.355Z,3.60
2022-09-28T04:03:56.437Z,2.85
2022-09-28T04:09:00.313Z,3.72
2022-09-28T04:14:03.655Z,3.08
2022-09-28T04:19:34.832Z,3.30
2022-09-28T04:24:47.560Z,3.95
2022-09-28T04:29:50.922Z,4.63
2022-09-28T04:34:56.068Z,3.85
2022-09-28T04:39:59.490Z,4.15
2022-09-28T04:45:04.833Z,3.45
2022-09-28T04:50:12.740Z,3.78
2022-09-28T05:00:40.198Z,3.65
2022-09-28T05:05:55.445Z,4.18
2022-09-28T05:11:18.378Z,3.75
2022-09-28T05:16:21.751Z,4.85
2022-09-28T05:21:49.214Z,4.25
2022-09-28T05:26:52.781Z,4.57
2022-09-28T05:31:56.718Z,4.95
2022-09-28T05:37:10.451Z,4.25
2022-09-28T05:42:13.681Z,4.70
2022-09-28T05:47:16.968Z,4.88
2022-09-28T05:52:22.273Z,4.72
2022-09-28T05:57:25.644Z,5.25
2022-09-28T06:02:28.815Z,5.43
2022-09-28T06:07:33.392Z,6.60
2022-09-28T06:12:36.703Z,5.57
2022-09-28T06:17:44.559Z,5.38
2022-09-28T06:23:07.816Z,4.88
2022-09-28T06:28:12.544Z,5.13
2022-09-28T06:33:16.398Z,5.07
2022-09-28T06:38:21.145Z,5.28
2022-09-28T06:43:25.733Z,6.45
2022-09-28T06:48:47.326Z,5.93
2022-09-28T06:54:10.600Z,5.88
2022-09-28T06:59:16.907Z,5.88
2022-09-28T07:04:20.935Z,5.38
2022-09-28T07:09:58.553Z,5.32
2022-09-28T07:15:25.130Z,4.07
2022-09-28T07:20:29.282Z,4.18
2022-09-28T07:25:36.085Z,3.90
2022-09-28T07:31:03.448Z,3.35
2022-09-28T07:36:27.026Z,4.05
2022-09-28T07:41:35.086Z,4.70
2022-09-28T07:46:43.393Z,3.85
2022-09-28T07:51:56.550Z,4.15
2022-09-28T07:57:07.102Z,3.20
2022-09-28T08:02:37.846Z,4.15
2022-09-28T08:07:42.805Z,3.60
2022-09-28T08:12:47.691Z,3.78
2022-09-28T08:18:20.622Z,2.83
2022-09-28T08:23:24.178Z,3.97
2022-09-28T08:28:30.344Z,4.57
2022-09-28T08:33:38.579Z,4.43
2022-09-28T08:39:01.121Z,3.85
2022-09-28T08:44:15.379Z,4.28
2022-09-28T08:49:47.398Z,5.18
2022-09-28T09:00:21.971Z,4.72
2022-09-28T09:05:41.689Z,5.03
2022-09-28T09:10:50.842Z,4.65
2022-09-28T09:16:08.317Z,3.75
2022-09-28T09:21:41.743Z,4.35
2022-09-28T09:26:46.044Z,3.67
2022-09-28T09:32:17.256Z,4.00
2022-09-28T09:37:34.683Z,4.18
2022-09-28T09:43:10.564Z,3.50
2022-09-28T10:09:00.719Z,2.92
2022-09-28T10:14:06.534Z,2.97
2022-09-28T10:19:29.185Z,2.13
2022-09-28T10:33:27.589Z,2.00
2022-09-28T10:38:33.948Z,2.10
2022-09-28T10:49:02.311Z,1.42
2022-09-28T10:54:15.510Z,1.45
2022-09-28T10:59:38.673Z,1.20
2022-09-28T11:05:01.831Z,1.27
2022-09-28T11:10:20.471Z,0.93
2022-09-28T11:29:30.927Z,1.02
2022-09-28T11:34:59.885Z,0.90
2022-09-28T11:40:17.425Z,1.00
2022-09-28T11:45:48.593Z,1.00
2022-09-28T11:50:56.604Z,1.15
2022-09-28T11:56:09.330Z,0.90
2022-09-28T12:01:22.033Z,0.90
2022-09-28T12:06:51.541Z,1.08
2022-09-28T12:12:02.351Z,1.25
2022-09-28T12:17:26.766Z,1.00
2022-09-28T12:22:34.736Z,1.23
2022-09-28T12:27:45.168Z,1.13
2022-09-28T12:32:53.127Z,0.95
2022-09-28T12:38:11.233Z,1.20
2022-09-28T12:43:30.109Z,1.20
2022-09-28T12:49:36.771Z,1.20
2022-09-28T12:54:41.041Z,0.93
2022-09-28T12:59:53.681Z,0.80
2022-09-28T13:05:16.113Z,0.90
2022-09-28T13:10:26.481Z,0.70
2022-09-28T13:15:44.501Z,0.60
2022-09-28T13:21:15.113Z,0.70
2022-09-28T13:26:24.841Z,0.68
2022-09-28T13:31:35.990Z,0.70
2022-09-28T13:36:47.244Z,1.00
2022-09-28T13:57:32.658Z,0.60
2022-09-28T14:02:39.632Z,0.70
2022-09-28T14:08:18.573Z,0.60
2022-09-28T14:13:59.512Z,0.77
2022-09-28T14:19:07.816Z,0.80
2022-09-28T14:24:26.640Z,0.77
2022-09-28T14:29:33.863Z,0.85
2022-09-28T14:34:41.543Z,0.80
2022-09-28T14:46:43.492Z,0.80
2022-09-28T14:52:10.440Z,0.73
2022-09-28T14:57:18.636Z,0.90
2022-09-28T15:02:31.458Z,0.85
2022-09-28T15:07:46.877Z,0.90
2022-09-28T15:12:52.813Z,1.00
2022-09-28T15:18:08.286Z,1.05
2022-09-28T15:23:26.698Z,1.02
2022-09-28T15:28:30.513Z,1.00
2022-09-28T15:33:54.028Z,1.48
2022-09-28T15:39:00.910Z,1.90
2022-09-28T15:44:29.116Z,1.52
2022-09-28T15:49:39.305Z,1.90
2022-09-28T15:54:45.060Z,2.60
2022-09-28T15:59:56.865Z,2.25
2022-09-28T16:05:02.395Z,2.50
2022-09-28T16:10:33.729Z,2.55
2022-09-28T16:15:38.044Z,2.22
2022-09-28T16:20:43.598Z,2.33
2022-09-28T16:36:11.106Z,1.58
2022-09-28T16:41:19.512Z,2.38
2022-09-28T16:46:29.404Z,1.73
2022-09-28T16:51:34.390Z,2.00
2022-09-28T16:56:37.760Z,2.13
2022-09-28T17:22:18.449Z,1.80
2022-09-28T17:27:21.691Z,1.90
2022-09-28T17:32:26.198Z,1.58
2022-09-28T17:37:29.468Z,1.73
2022-09-28T17:42:33.226Z,2.30
2022-09-28T17:47:38.455Z,2.00
2022-09-28T17:52:42.312Z,1.90
2022-09-28T17:58:16.098Z,1.83
2022-09-28T18:03:23.183Z,2.38
2022-09-28T18:08:27.636Z,2.38
2022-09-28T18:13:32.239Z,2.33
2022-09-28T18:18:39.849Z,2.28
2022-09-28T18:23:44.024Z,2.15
2022-09-28T18:28:48.097Z,2.40
2022-09-28T18:33:59.049Z,2.65
2022-09-28T18:39:03.129Z,2.80
2022-09-28T18:44:07.163Z,2.80
2022-09-28T18:49:12.249Z,2.80
2022-09-28T18:54:17.047Z,2.88
2022-09-28T18:59:20.283Z,2.90
2022-09-28T19:04:25.123Z,3.22
2022-09-28T19:09:28.418Z,3.72
2022-09-28T19:14:32.173Z,3.28
2022-09-28T19:19:36.689Z,3.53
2022-09-28T19:24:42.537Z,3.85
2022-09-28T19:29:45.797Z,4.82
2022-09-28T19:34:50.268Z,3.95
2022-09-28T19:40:48.661Z,4.03
2022-09-28T19:45:53.416Z,4.57
2022-09-28T19:50:59.666Z,5.63
2022-09-28T19:56:05.088Z,5.15
2022-09-28T20:01:08.281Z,4.55
2022-09-28T20:06:17.231Z,4.88
2022-09-28T20:11:21.341Z,4.80
2022-09-28T20:16:25.279Z,4.63
2022-09-28T20:21:30.492Z,3.80
2022-09-28T20:26:37.928Z,4.35
2022-09-28T20:31:41.158Z,4.57
2022-09-28T20:36:45.679Z,5.03
2022-09-28T20:41:49.285Z,4.83
2022-09-28T20:46:52.457Z,4.32
2022-09-28T20:51:56.940Z,4.22
2022-09-28T20:56:59.970Z,4.35
2022-09-28T21:02:03.329Z,4.53
2022-09-28T21:07:08.745Z,3.60
2022-09-28T21:17:15.885Z,3.88
2022-09-28T21:22:20.294Z,3.10
2022-09-28T21:27:23.449Z,3.47
2022-09-28T21:32:27.755Z,4.30
2022-09-28T21:37:32.289Z,3.17
2022-09-28T21:42:35.759Z,3.37
2022-09-28T21:47:41.335Z,3.83
2022-09-28T21:52:45.822Z,3.83
2022-09-28T21:57:53.305Z,3.47
2022-09-28T22:02:57.076Z,3.17
2022-09-28T22:08:01.800Z,3.70
2022-09-28T22:13:04.890Z,3.87
2022-09-28T22:18:07.930Z,3.13
2022-09-28T22:23:12.427Z,3.70
2022-09-28T22:28:15.867Z,4.10
2022-09-28T22:33:19.286Z,3.25
2022-09-28T22:38:24.734Z,3.58
2022-09-28T22:48:31.962Z,3.10
2022-09-28T22:53:36.407Z,3.72
2022-09-28T22:58:39.510Z,4.40
2022-09-28T23:03:42.847Z,3.60
2022-09-28T23:08:48.661Z,3.45
2022-09-28T23:13:52.734Z,3.25
2022-09-28T23:18:56.277Z,3.63
2022-09-28T23:24:01.652Z,4.70
2022-09-28T23:34:07.923Z,3.50
2022-09-28T23:39:12.505Z,3.72
2022-09-28T23:44:15.570Z,4.73
2022-09-28T23:49:18.833Z,4.38
2022-09-28T23:54:23.325Z,4.72
